Time;durP1;ratioP1;P1;durP2;ratioP2;P2;SDS_P1;SDS_P2;PMS_P1;PMS_P2;Temp;Humidity;BMP_temperature;BMP_pressure;BME280_temperature;BME280_humidity;BME280_pressure;Samples;Min_cycle;Max_cycle;Signal;HPM_P1;HPM_P2
2023/06/14 00:00:12;;;;;;;5.75;0.50;;;;;;;14.13;39.73;101837.59;4965063;28;20050;-73
2023/06/14 00:02:39;;;;;;;2.28;0.45;;;;;;;14.18;39.38;101830.38;4962693;28;20062;-73
2023/06/14 00:05:05;;;;;;;2.92;0.40;;;;;;;14.13;39.68;101832.31;4964942;28;20484;-73
2023/06/14 00:07:36;;;;;;;5.03;0.95;;;;;;;14.09;39.91;101836.84;4980268;28;20042;-73
2023/06/14 00:10:04;;;;;;;1.23;0.30;;;;;;;14.02;39.94;101834.53;4949561;28;20529;-73
2023/06/14 00:12:30;;;;;;;0.88;0.40;;;;;;;14.11;39.88;101834.16;4963224;28;20050;-78
2023/06/14 00:14:56;;;;;;;1.20;0.40;;;;;;;14.11;39.80;101840.25;4965208;28;20229;-71
2023/06/14 00:17:22;;;;;;;3.72;0.50;;;;;;;14.11;40.02;101844.69;4966990;28;20050;-76
2023/06/14 00:19:48;;;;;;;3.45;0.55;;;;;;;13.97;40.33;101839.97;4964588;28;20266;-77
2023/06/14 00:22:13;;;;;;;0.60;0.20;;;;;;;14.04;40.45;101848.47;4967104;28;20038;-76
2023/06/14 00:24:38;;;;;;;4.22;0.40;;;;;;;13.93;40.57;101833.13;4963655;28;20463;-76
2023/06/14 00:27:05;;;;;;;0.95;0.50;;;;;;;13.86;41.10;101843.00;4954827;28;20329;-76
2023/06/14 00:29:30;;;;;;;2.28;0.43;;;;;;;13.84;41.27;101844.84;4964705;28;20278;-76
2023/06/14 00:31:56;;;;;;;3.28;0.65;;;;;;;13.91;41.02;101846.31;4950547;28;20169;-76
2023/06/14 00:34:21;;;;;;;2.75;0.45;;;;;;;13.81;41.52;101847.59;4967716;28;20140;-77
2023/06/14 00:36:47;;;;;;;2.03;0.57;;;;;;;13.81;41.59;101850.22;4967874;28;20073;-76
2023/06/14 00:39:13;;;;;;;1.55;0.40;;;;;;;13.86;41.27;101850.88;4967435;28;20030;-77
2023/06/14 00:41:39;;;;;;;1.42;0.50;;;;;;;13.69;41.85;101848.03;4964192;28;20049;-78
2023/06/14 00:44:05;;;;;;;1.40;0.60;;;;;;;13.66;42.25;101853.41;4963380;28;20031;-77
2023/06/14 00:46:30;;;;;;;2.35;0.63;;;;;;;13.63;42.28;101851.78;4950072;28;20042;-76
2023/06/14 00:48:58;;;;;;;1.85;0.60;;;;;;;13.64;42.02;101850.84;4967705;28;20396;-77
2023/06/14 00:51:24;;;;;;;4.22;0.75;;;;;;;13.69;42.18;101848.88;4950080;28;20598;-77
2023/06/14 00:53:49;;;;;;;2.92;1.58;;;;;;;13.43;43.20;101847.22;4966519;28;21364;-75
2023/06/14 00:56:20;;;;;;;3.92;1.40;;;;;;;13.57;42.53;101853.78;4966545;28;20142;-77
2023/06/14 00:58:50;;;;;;;2.45;0.68;;;;;;;13.55;43.15;101855.56;4982141;28;20117;-77
2023/06/14 01:01:16;;;;;;;2.15;0.60;;;;;;;13.46;43.03;101852.34;4943670;28;20183;-76
2023/06/14 01:03:42;;;;;;;1.77;0.80;;;;;;;13.51;42.94;101854.81;4964586;28;20640;-76
2023/06/14 01:06:30;;;;;;;2.20;0.60;;;;;;;13.45;43.05;101850.66;4969407;28;20045;-76
2023/06/14 01:09:01;;;;;;;2.60;0.68;;;;;;;13.33;43.46;101851.94;4966861;28;20513;-71
2023/06/14 01:11:40;;;;;;;2.67;0.70;;;;;;;13.34;43.89;101844.94;4961048;28;20065;-70
2023/06/14 01:14:09;;;;;;;3.13;0.77;;;;;;;13.35;43.46;101844.00;4963682;28;20037;-70
2023/06/14 01:16:36;;;;;;;4.90;0.70;;;;;;;13.29;43.96;101849.47;4959547;28;20145;-70
2023/06/14 01:19:02;;;;;;;2.85;0.68;;;;;;;13.17;44.01;101852.56;4964888;28;20087;-70
2023/06/14 01:21:28;;;;;;;2.80;0.95;;;;;;;13.10;44.00;101852.75;4951595;28;20520;-72
2023/06/14 01:23:54;;;;;;;3.05;1.02;;;;;;;13.09;44.32;101851.06;4961757;28;20672;-71
2023/06/14 01:26:21;;;;;;;1.60;0.52;;;;;;;13.05;44.68;101862.56;4960170;28;20041;-70
2023/06/14 01:28:48;;;;;;;4.90;1.08;;;;;;;13.05;44.66;101851.22;4960238;28;20030;-70
2023/06/14 01:31:19;;;;;;;6.85;0.70;;;;;;;13.07;44.83;101858.13;4962952;28;20360;-70
2023/06/14 01:33:45;;;;;;;2.38;0.93;;;;;;;13.02;45.07;101862.66;4959859;28;20050;-70
2023/06/14 01:36:12;;;;;;;5.40;1.38;;;;;;;12.97;44.99;101864.59;4962881;28;20034;-70
2023/06/14 01:38:39;;;;;;;2.67;0.57;;;;;;;13.04;44.94;101855.59;4961276;28;20038;-70
2023/06/14 01:41:05;;;;;;;3.03;0.80;;;;;;;12.99;45.22;101857.53;4961957;28;20567;-72
2023/06/14 01:43:31;;;;;;;4.43;1.05;;;;;;;12.86;45.64;101859.72;4963656;28;20026;-70
2023/06/14 01:45:57;;;;;;;3.13;1.20;;;;;;;12.89;45.39;101857.00;4959895;28;20347;-70
2023/06/14 01:48:23;;;;;;;3.00;0.90;;;;;;;12.86;45.70;101864.09;4956033;28;20038;-72
2023/06/14 01:50:49;;;;;;;4.63;1.25;;;;;;;12.89;45.65;101867.50;4958865;28;20038;-73
2023/06/14 01:53:15;;;;;;;1.65;0.88;;;;;;;12.78;45.86;101858.25;4964706;28;20052;-73
2023/06/14 01:55:43;;;;;;;4.65;0.93;;;;;;;12.76;45.86;101866.19;4963551;28;20031;-73
2023/06/14 01:58:09;;;;;;;1.85;0.73;;;;;;;12.76;45.76;101867.94;4966626;28;20045;-73
2023/06/14 02:00:36;;;;;;;3.92;1.35;;;;;;;12.72;46.13;101858.47;4963440;28;20551;-75
2023/06/14 02:03:04;;;;;;;2.20;0.93;;;;;;;12.69;46.13;101855.03;4961706;28;20062;-73
2023/06/14 02:05:30;;;;;;;2.72;1.00;;;;;;;12.65;46.11;101853.41;4963606;28;20673;-75
2023/06/14 02:07:55;;;;;;;2.60;1.00;;;;;;;12.65;46.47;101861.25;4961501;28;20699;-74
2023/06/14 02:10:21;;;;;;;6.20;1.80;;;;;;;12.60;46.73;101854.44;4947227;28;20042;-73
2023/06/14 02:12:46;;;;;;;3.38;0.85;;;;;;;12.55;46.97;101851.97;4960115;28;20038;-74
2023/06/14 02:15:16;;;;;;;6.88;1.50;;;;;;;12.56;47.34;101855.44;4962219;28;20030;-78
2023/06/14 02:17:51;;;;;;;2.40;1.02;;;;;;;12.54;47.20;101855.50;4961130;28;20181;-74
2023/06/14 02:20:16;;;;;;;6.85;1.80;;;;;;;12.64;46.99;101851.66;4941249;28;20844;-72
2023/06/14 02:22:42;;;;;;;5.07;1.23;;;;;;;12.68;46.84;101853.28;4944631;28;20034;-72
2023/06/14 02:25:08;;;;;;;3.22;0.93;;;;;;;12.67;47.00;101862.06;4963215;28;20027;-69
2023/06/14 02:27:36;;;;;;;1.88;0.93;;;;;;;12.69;46.94;101865.53;4944766;28;20058;-71
2023/06/14 02:30:03;;;;;;;3.85;0.90;;;;;;;12.67;46.99;101869.94;4959924;28;20070;-72
2023/06/14 02:32:28;;;;;;;2.08;0.80;;;;;;;12.62;47.29;101874.47;4959605;28;20555;-68
2023/06/14 02:34:54;;;;;;;3.78;1.05;;;;;;;12.58;47.55;101875.50;4959263;28;20779;-73
2023/06/14 02:37:20;;;;;;;4.43;1.10;;;;;;;12.49;47.40;101873.13;4981809;28;20502;-73
2023/06/14 02:39:46;;;;;;;5.78;1.20;;;;;;;12.45;47.86;101876.78;4965052;28;20141;-76
2023/06/14 02:42:11;;;;;;;2.35;0.80;;;;;;;12.58;47.28;101875.50;4965297;28;20046;-77
2023/06/14 02:44:37;;;;;;;6.03;0.95;;;;;;;12.49;47.69;101871.41;4970646;28;20088;-75
2023/06/14 02:47:04;;;;;;;5.20;1.02;;;;;;;12.48;47.99;101863.56;4967073;28;20392;-71
2023/06/14 02:49:29;;;;;;;3.90;1.10;;;;;;;12.36;48.26;101877.09;4970645;28;20124;-74
2023/06/14 02:51:55;;;;;;;2.60;1.55;;;;;;;12.52;47.80;101878.31;4960208;28;20129;-76
2023/06/14 02:54:21;;;;;;;3.08;0.98;;;;;;;12.40;48.02;101870.81;4965394;28;20042;-77
2023/06/14 02:56:46;;;;;;;5.97;1.10;;;;;;;12.28;48.57;101875.53;4962508;28;20065;-76
2023/06/14 02:59:13;;;;;;;2.22;1.10;;;;;;;12.36;48.39;101877.94;4967354;28;20025;-76
2023/06/14 03:01:40;;;;;;;4.05;1.42;;;;;;;12.36;48.50;101887.56;4962458;28;20058;-70
2023/06/14 03:04:08;;;;;;;3.20;1.33;;;;;;;12.35;48.45;101886.69;4954019;28;20052;-70
2023/06/14 03:06:36;;;;;;;4.50;1.55;;;;;;;12.35;48.50;101878.84;4960750;28;20034;-67
2023/06/14 03:09:04;;;;;;;3.55;1.30;;;;;;;12.23;48.87;101887.94;4947615;28;20646;-66
2023/06/14 03:11:36;;;;;;;5.80;1.52;;;;;;;12.30;48.77;101886.00;4958539;28;20038;-65
2023/06/14 03:14:04;;;;;;;5.25;1.48;;;;;;;12.18;49.05;101892.47;4960250;28;20188;-66
2023/06/14 03:16:29;;;;;;;3.05;1.17;;;;;;;12.30;48.98;101893.84;4965502;28;20104;-66
2023/06/14 03:18:56;;;;;;;5.28;1.63;;;;;;;12.26;48.86;101886.97;4959233;28;20038;-67
2023/06/14 03:21:25;;;;;;;2.60;1.20;;;;;;;12.25;49.01;101891.38;4961853;28;20045;-66
2023/06/14 03:23:52;;;;;;;3.97;2.53;;;;;;;12.24;49.08;101889.66;4946572;28;20502;-66
2023/06/14 03:26:19;;;;;;;3.47;1.33;;;;;;;12.23;49.19;101898.44;4958097;28;20061;-66
2023/06/14 03:28:48;;;;;;;3.22;1.13;;;;;;;12.11;49.73;101896.19;4973850;28;20033;-66
2023/06/14 03:31:15;;;;;;;5.68;1.85;;;;;;;12.13;49.56;101890.88;4962545;28;20056;-66
2023/06/14 03:33:41;;;;;;;4.45;1.48;;;;;;;12.16;49.79;101902.16;4946463;28;20527;-67
2023/06/14 03:36:07;;;;;;;3.28;1.75;;;;;;;12.10;49.62;101902.31;4959790;28;20761;-67
2023/06/14 03:38:36;;;;;;;3.90;1.63;;;;;;;12.19;49.94;101907.28;4960798;28;20118;-67
2023/06/14 03:41:06;;;;;;;4.00;1.95;;;;;;;12.17;49.78;101903.84;4958452;28;20050;-67
2023/06/14 03:43:35;;;;;;;4.75;2.10;;;;;;;12.32;49.54;101912.16;4960663;28;20073;-66
2023/06/14 03:46:01;;;;;;;7.72;1.35;;;;;;;12.33;49.46;101904.22;4961502;28;20145;-71
2023/06/14 03:48:29;;;;;;;5.45;1.20;;;;;;;12.29;49.75;101903.50;4953191;28;20034;-70
2023/06/14 03:50:56;;;;;;;4.05;1.13;;;;;;;12.27;49.93;101918.41;4958816;28;20236;-70
2023/06/14 03:53:23;;;;;;;3.97;1.70;;;;;;;12.43;49.24;101915.31;4961770;28;20100;-71
2023/06/14 03:55:53;;;;;;;;;;;;;;;12.38;49.77;101923.31;4944462;28;20101;-81
2023/06/14 03:58:20;;;;;;;2.08;1.42;;;;;;;12.41;49.24;101917.13;4965273;28;20402;-77
2023/06/14 04:00:46;;;;;;;4.55;1.45;;;;;;;12.54;49.08;101918.47;4959999;28;20045;-77
2023/06/14 04:03:15;;;;;;;9.07;1.58;;;;;;;12.50;49.19;101925.53;4966837;28;20034;-78
2023/06/14 04:05:44;;;;;;;4.30;2.03;;;;;;;12.63;49.16;101923.41;4954008;28;20541;-77
2023/06/14 04:08:14;;;;;;;6.30;1.60;;;;;;;12.64;48.74;101925.09;4950916;28;20042;-77
2023/06/14 04:10:40;;;;;;;2.65;1.00;;;;;;;12.69;49.01;101928.50;4961963;28;20069;-77
2023/06/14 04:13:07;;;;;;;4.07;1.65;;;;;;;12.83;48.64;101929.81;4964484;28;20084;-75
2023/06/14 04:15:33;;;;;;;2.28;1.17;;;;;;;12.93;48.34;101920.72;4955428;28;20050;-75
2023/06/14 04:18:00;;;;;;;2.92;1.27;;;;;;;12.92;48.39;101926.88;4965395;28;20539;-76
2023/06/14 04:20:26;;;;;;;4.65;1.67;;;;;;;12.77;48.61;101930.00;4976974;28;20057;-75
2023/06/14 04:22:57;;;;;;;2.70;1.65;;;;;;;12.86;48.49;101925.31;4946590;28;20034;-76
2023/06/14 04:25:24;;;;;;;3.85;1.63;;;;;;;13.07;48.27;101933.34;4963321;28;20848;-75
2023/06/14 04:27:52;;;;;;;5.95;1.85;;;;;;;13.10;48.14;101939.38;4962622;28;20111;-75
2023/06/14 04:30:21;;;;;;;7.97;1.70;;;;;;;13.07;48.49;101931.63;4957926;28;20026;-75
2023/06/14 04:32:49;;;;;;;;;;;;;;;13.10;47.86;101939.38;4954651;28;20091;-77
2023/06/14 04:35:15;;;;;;;7.28;1.77;;;;;;;13.23;47.99;101944.22;4976464;28;19929;-75
2023/06/14 04:37:43;;;;;;;4.78;1.95;;;;;;;13.31;47.32;101943.03;4964830;28;20617;-74
2023/06/14 04:40:10;;;;;;;4.97;2.15;;;;;;;13.35;47.51;101940.31;4961176;28;20058;-75
2023/06/14 04:42:36;;;;;;;4.70;1.33;;;;;;;13.45;47.15;101946.94;4963179;28;20100;-74
2023/06/14 04:45:05;;;;;;;5.78;1.92;;;;;;;13.60;47.56;101943.81;4946034;28;20232;-74
2023/06/14 04:47:31;;;;;;;3.38;1.58;;;;;;;13.82;46.43;101951.78;4962209;28;20038;-74
2023/06/14 04:49:57;;;;;;;4.97;1.30;;;;;;;13.85;46.26;101954.31;4942184;28;20030;-71
2023/06/14 04:52:26;;;;;;;5.50;1.52;;;;;;;13.80;46.32;101961.47;4954570;28;20092;-71
2023/06/14 04:54:56;;;;;;;5.97;1.70;;;;;;;13.80;46.39;101955.38;4969001;28;20038;-72
2023/06/14 04:57:25;;;;;;;4.43;1.80;;;;;;;13.85;46.33;101959.56;4959005;28;20539;-71
2023/06/14 04:59:55;;;;;;;4.78;1.63;;;;;;;13.94;46.05;101953.97;4959737;28;20041;-71
2023/06/14 05:02:25;;;;;;;3.17;1.63;;;;;;;14.07;46.24;101953.47;4977410;28;20519;-71
2023/06/14 05:04:52;;;;;;;4.90;1.75;;;;;;;14.58;45.37;101952.41;4945460;28;20034;-73
2023/06/14 05:07:18;;;;;;;3.72;1.30;;;;;;;16.06;41.83;101965.44;4962243;28;20140;-72
2023/06/14 05:09:44;;;;;;;3.90;1.48;;;;;;;17.83;38.23;101959.38;4960576;28;20035;-70
2023/06/14 05:12:12;;;;;;;7.28;1.58;;;;;;;19.42;35.88;101954.75;4968094;28;20038;-66
2023/06/14 05:14:39;;;;;;;4.78;1.42;;;;;;;20.92;31.95;101956.81;4958568;28;20088;-68
2023/06/14 05:17:05;;;;;;;3.03;1.25;;;;;;;21.16;31.26;101956.94;4962056;28;20038;-67
2023/06/14 05:19:31;;;;;;;2.88;1.02;;;;;;;21.26;30.86;101958.00;4961052;28;20447;-73
2023/06/14 05:21:57;;;;;;;9.40;1.67;;;;;;;22.15;30.10;101951.78;4964003;28;20046;-75
2023/06/14 05:24:22;;;;;;;3.13;1.20;;;;;;;22.54;28.81;101962.31;4963126;28;20120;-75
2023/06/14 05:26:49;;;;;;;2.75;1.38;;;;;;;23.18;27.87;101956.59;4964027;28;20066;-75
2023/06/14 05:29:14;;;;;;;4.40;1.25;;;;;;;23.64;27.91;101958.38;4962589;28;20985;-75
2023/06/14 05:31:40;;;;;;;1.90;0.95;;;;;;;24.27;26.30;101956.00;4960247;28;20694;-77
2023/06/14 05:34:05;;;;;;;9.57;2.15;;;;;;;23.56;27.03;101956.31;4952261;28;20077;-75
2023/06/14 05:36:31;;;;;;;5.70;1.20;;;;;;;23.37;27.66;101956.91;4979389;28;20030;-75
2023/06/14 05:38:59;;;;;;;4.28;1.40;;;;;;;24.01;26.45;101958.13;4974549;28;20492;-72
2023/06/14 05:41:28;;;;;;;6.03;1.15;;;;;;;24.28;26.18;101956.84;4966841;28;20141;-71
2023/06/14 05:43:57;;;;;;;3.38;1.23;;;;;;;24.70;25.70;101960.50;4958929;28;20047;-71
2023/06/14 05:46:26;;;;;;;3.70;1.38;;;;;;;24.28;26.64;101962.19;4962043;28;20046;-72
2023/06/14 05:48:53;;;;;;;2.88;1.52;;;;;;;24.10;26.35;101969.88;4962453;28;20034;-76
2023/06/14 05:51:19;;;;;;;4.28;1.50;;;;;;;24.81;25.90;101971.13;4960529;28;20076;-72
2023/06/14 05:53:48;;;;;;;3.75;1.23;;;;;;;24.78;25.39;101968.72;4961966;28;20034;-73
2023/06/14 05:56:17;;;;;;;2.38;1.58;;;;;;;25.45;24.22;101970.16;4956820;28;20169;-69
2023/06/14 05:58:43;;;;;;;3.05;1.60;;;;;;;25.20;24.85;101978.63;4961626;28;20037;-71
2023/06/14 06:01:08;;;;;;;4.70;1.63;;;;;;;25.47;24.73;101972.72;4961602;28;20105;-73
2023/06/14 06:03:34;;;;;;;4.63;1.63;;;;;;;24.99;25.60;101975.94;4935859;28;22280;-71
2023/06/14 06:06:00;;;;;;;6.28;1.77;;;;;;;25.41;25.00;101976.75;4955013;28;20343;-74
2023/06/14 06:08:27;;;;;;;9.35;1.55;;;;;;;25.35;24.66;101980.00;4952719;28;20133;-74
2023/06/14 06:10:52;;;;;;;7.95;0.98;;;;;;;25.75;24.73;101981.88;4959242;28;20061;-72
2023/06/14 06:13:18;;;;;;;2.60;1.30;;;;;;;26.55;23.33;101977.41;4959828;28;20263;-72
2023/06/14 06:15:44;;;;;;;5.05;1.55;;;;;;;26.79;23.50;101986.91;4959617;28;20042;-73
2023/06/14 06:18:10;;;;;;;7.57;1.75;;;;;;;26.14;23.48;101989.25;4959722;28;20046;-75
2023/06/14 06:20:36;;;;;;;6.43;1.45;;;;;;;25.99;24.21;101986.88;4957489;28;20462;-73
2023/06/14 06:23:02;;;;;;;2.45;1.05;;;;;;;25.69;24.13;101987.78;4960871;28;20038;-74
2023/06/14 06:25:28;;;;;;;3.03;1.50;;;;;;;25.91;24.60;101985.88;4958694;28;20038;-73
2023/06/14 06:27:56;;;;;;;2.22;1.48;;;;;;;25.96;23.82;101986.34;4960522;28;20431;-73
2023/06/14 06:30:21;;;;;;;2.85;1.20;;;;;;;26.13;24.00;101990.19;4957915;28;20038;-74
2023/06/14 06:32:47;;;;;;;4.30;1.75;;;;;;;27.24;22.43;101991.69;4959155;28;20105;-73
2023/06/14 06:35:13;;;;;;;7.80;1.25;;;;;;;27.30;22.06;101993.78;4960481;28;20078;-73
2023/06/14 06:37:39;;;;;;;2.63;1.20;;;;;;;26.43;22.19;102002.69;4958575;28;20066;-75
2023/06/14 06:40:07;;;;;;;2.97;1.10;;;;;;;25.67;23.08;102003.97;4973386;28;20037;-74
2023/06/14 06:42:32;;;;;;;2.97;1.15;;;;;;;25.78;22.61;102008.41;4942601;28;20544;-73
2023/06/14 06:45:02;;;;;;;2.95;0.90;;;;;;;25.25;23.76;102011.19;4952318;28;20030;-72
2023/06/14 06:47:28;;;;;;;6.55;1.40;;;;;;;26.00;22.54;102010.03;4961918;28;20042;-73
2023/06/14 06:49:53;;;;;;;2.25;1.00;;;;;;;26.24;22.70;102012.34;4943691;28;20044;-70
2023/06/14 06:52:19;;;;;;;11.20;1.15;;;;;;;27.27;21.48;102012.84;4960221;28;20128;-73
2023/06/14 06:54:45;;;;;;;2.45;0.80;;;;;;;28.10;20.16;102013.84;4961089;28;20045;-70
2023/06/14 06:57:10;;;;;;;2.97;0.93;;;;;;;26.38;21.87;102015.63;4958954;28;20566;-70
2023/06/14 06:59:36;;;;;;;2.40;0.80;;;;;;;26.50;22.07;102019.91;4958959;28;20632;-70
2023/06/14 07:02:02;;;;;;;6.43;1.50;;;;;;;26.84;21.44;102016.84;4941939;28;21567;-71
2023/06/14 07:04:27;;;;;;;4.15;1.30;;;;;;;28.21;19.99;102011.94;4956870;28;20062;-70
2023/06/14 07:06:53;;;;;;;2.95;0.95;;;;;;;28.85;19.36;102016.31;4962378;28;20062;-70
2023/06/14 07:09:19;;;;;;;2.45;1.40;;;;;;;28.73;19.91;102015.72;4971514;28;20045;-70
2023/06/14 07:11:46;;;;;;;4.25;0.98;;;;;;;28.50;19.50;102023.38;4971523;28;20035;-70
2023/06/14 07:14:12;;;;;;;1.60;1.08;;;;;;;28.94;19.52;102017.22;4966803;28;20038;-70
2023/06/14 07:16:37;;;;;;;3.15;0.82;;;;;;;29.23;18.74;102019.66;4930874;28;20052;-70
2023/06/14 07:19:03;;;;;;;3.58;1.10;;;;;;;29.00;19.02;102015.75;4965923;28;20118;-73
2023/06/14 07:21:29;;;;;;;6.03;0.70;;;;;;;28.02;19.36;102026.31;4958629;28;20066;-70
2023/06/14 07:23:55;;;;;;;3.55;0.77;;;;;;;28.43;18.91;102024.13;4965122;28;20726;-71
2023/06/14 07:26:21;;;;;;;3.67;0.70;;;;;;;29.03;18.29;102018.97;4960770;28;20038;-71
2023/06/14 07:28:48;;;;;;;6.15;0.98;;;;;;;29.77;18.14;102016.78;4964361;28;20058;-71
2023/06/14 07:31:19;;;;;;;3.10;0.90;;;;;;;29.48;18.18;102023.31;4961504;28;20535;-72
2023/06/14 07:33:44;;;;;;;2.07;0.97;;;;;;;29.68;17.84;102026.66;4952607;28;20039;-71
2023/06/14 07:36:10;;;;;;;5.05;4.05;;;;;;;30.29;17.40;102023.91;4954053;28;20293;-71
2023/06/14 07:38:36;;;;;;;6.93;3.00;;;;;;;30.10;17.65;102019.63;4963076;28;20512;-70
2023/06/14 07:41:02;;;;;;;5.40;3.40;;;;;;;29.84;17.89;102028.63;4956381;28;20054;-72
2023/06/14 07:43:27;;;;;;;3.53;1.25;;;;;;;30.26;17.47;102022.34;4958106;28;20034;-71
2023/06/14 07:45:53;;;;;;;3.88;0.65;;;;;;;29.90;17.42;102019.03;4961351;28;20046;-71
2023/06/14 07:48:19;;;;;;;2.83;0.88;;;;;;;29.46;17.58;102019.97;4959473;28;20261;-72
2023/06/14 07:50:44;;;;;;;4.07;0.80;;;;;;;28.65;18.12;102026.38;4960513;28;20085;-72
2023/06/14 07:53:09;;;;;;;3.75;0.75;;;;;;;27.87;19.50;102010.69;4961293;28;20034;-70
2023/06/14 07:55:36;;;;;;;1.88;0.80;;;;;;;28.68;18.47;102018.03;4957901;28;20403;-72
2023/06/14 07:58:06;;;;;;;2.97;1.88;;;;;;;28.64;18.71;102021.19;4963079;28;20122;-72
2023/06/14 08:00:31;;;;;;;2.45;0.75;;;;;;;29.75;18.81;102024.16;4958541;28;20034;-72
2023/06/14 08:02:59;;;;;;;1.38;0.80;;;;;;;29.80;17.55;102024.56;4947343;28;20861;-71
2023/06/14 08:05:28;;;;;;;1.65;0.90;;;;;;;28.71;18.89;102024.94;4957768;28;20045;-71
2023/06/14 08:07:54;;;;;;;3.63;0.90;;;;;;;29.29;18.53;102028.94;4962559;28;20446;-71
2023/06/14 08:10:20;;;;;;;4.50;1.00;;;;;;;29.59;18.14;102024.91;4958097;28;20030;-72
2023/06/14 08:12:46;;;;;;;4.22;1.08;;;;;;;29.74;18.34;102027.88;4948181;28;20041;-72
2023/06/14 08:15:11;;;;;;;1.98;0.82;;;;;;;30.17;17.65;102023.34;4961897;28;20038;-72
2023/06/14 08:17:37;;;;;;;8.23;1.27;;;;;;;29.71;18.05;102020.13;4957213;28;20577;-71
2023/06/14 08:20:06;;;;;;;5.38;1.00;;;;;;;30.75;17.31;102014.34;4964480;28;20100;-73
2023/06/14 08:22:33;;;;;;;4.20;0.90;;;;;;;31.02;17.25;102017.75;4957748;28;20050;-72
2023/06/14 08:25:00;;;;;;;2.53;1.05;;;;;;;29.95;17.35;102022.06;4963566;28;20038;-72
2023/06/14 08:27:26;;;;;;;5.50;0.95;;;;;;;30.18;17.75;102025.06;4946148;28;20069;-73
2023/06/14 08:29:52;;;;;;;3.30;1.08;;;;;;;30.28;17.45;102023.03;4940255;28;20361;-70
2023/06/14 08:32:17;;;;;;;2.13;0.70;;;;;;;31.00;17.34;102025.13;4956467;28;20221;-71
2023/06/14 08:34:42;;;;;;;2.92;1.40;;;;;;;31.08;17.00;102027.03;4963914;28;20046;-70
2023/06/14 08:37:08;;;;;;;1.30;0.68;;;;;;;30.31;17.80;102025.41;4963278;28;20402;-70
2023/06/14 08:39:33;;;;;;;2.13;0.70;;;;;;;30.32;17.39;102024.41;4972327;28;21772;-70
2023/06/14 08:42:01;;;;;;;3.85;0.90;;;;;;;30.34;17.09;102025.09;4963721;28;20066;-71
2023/06/14 08:44:27;;;;;;;2.38;1.02;;;;;;;28.64;18.14;102024.72;4974323;28;20045;-71
2023/06/14 08:46:56;;;;;;;3.25;1.10;;;;;;;28.18;18.96;102020.31;4961576;28;20046;-71
2023/06/14 08:49:23;;;;;;;1.48;0.98;;;;;;;28.29;19.89;102020.09;4958219;28;20034;-71
2023/06/14 08:51:57;;;;;;;1.48;0.63;;;;;;;28.63;19.61;102014.94;4961343;28;20532;-71
2023/06/14 08:54:24;;;;;;;3.78;0.75;;;;;;;29.77;17.85;102016.78;4955259;28;20109;-72
2023/06/14 08:56:51;;;;;;;1.38;0.80;;;;;;;30.28;18.02;102001.47;4960231;28;20229;-71
2023/06/14 08:59:20;;;;;;;6.28;0.80;;;;;;;30.54;17.71;102001.34;4960209;28;20038;-76
2023/06/14 09:01:46;;;;;;;4.57;1.25;;;;;;;29.89;18.23;102002.00;4960620;28;20038;-75
2023/06/14 09:04:11;;;;;;;3.40;0.98;;;;;;;30.89;17.87;102003.91;4960751;28;20484;-73
2023/06/14 09:06:37;;;;;;;3.05;0.85;;;;;;;30.25;18.00;102004.50;4958606;28;20190;-75
2023/06/14 09:09:04;;;;;;;3.13;1.42;;;;;;;29.94;18.36;102005.06;4962625;28;20596;-74
2023/06/14 09:11:30;;;;;;;4.93;1.20;;;;;;;29.54;17.95;102020.00;4961392;28;20041;-77
2023/06/14 09:13:58;;;;;;;2.22;0.93;;;;;;;29.44;17.91;102007.66;4962526;28;20608;-73
2023/06/14 09:16:25;;;;;;;5.15;1.10;;;;;;;29.42;18.47;102018.59;4959479;28;20433;-72
2023/06/14 09:18:51;;;;;;;2.40;0.75;;;;;;;28.08;19.38;102017.69;4965484;28;20086;-74
2023/06/14 09:21:17;;;;;;;1.45;0.80;;;;;;;27.87;19.92;102021.44;4958811;28;20042;-71
2023/06/14 09:23:45;;;;;;;2.33;0.75;;;;;;;28.00;19.80;102025.63;4959226;28;20135;-73
2023/06/14 09:26:17;;;;;;;2.55;0.80;;;;;;;28.83;19.38;102031.75;4958393;28;20046;-75
2023/06/14 09:28:48;;;;;;;1.52;1.02;;;;;;;27.27;21.12;102029.81;4961102;28;20823;-75
2023/06/14 09:31:16;;;;;;;3.75;1.45;;;;;;;27.51;21.54;102026.63;4959968;28;20046;-72
2023/06/14 09:33:47;;;;;;;3.28;0.85;;;;;;;27.44;20.65;102030.91;4957731;28;20169;-72
2023/06/14 09:36:17;;;;;;;2.78;1.05;;;;;;;27.71;20.83;102031.97;4960558;28;20038;-72
2023/06/14 09:38:52;;;;;;;5.22;1.30;;;;;;;27.79;20.61;102033.94;4958722;28;20799;-72
2023/06/14 09:41:18;;;;;;;4.93;1.10;;;;;;;27.07;21.40;102034.34;4953732;28;20038;-72
2023/06/14 09:43:45;;;;;;;3.70;1.10;;;;;;;27.33;21.57;102044.47;4961320;28;20037;-72
2023/06/14 09:46:11;;;;;;;5.50;1.05;;;;;;;27.28;21.60;102038.72;4956367;28;20054;-72
2023/06/14 09:48:36;;;;;;;4.95;1.23;;;;;;;26.46;21.88;102050.63;4960732;28;20030;-72
2023/06/14 09:51:03;;;;;;;5.25;1.50;;;;;;;25.45;22.97;102047.78;4962725;28;20700;-71
2023/06/14 09:53:32;;;;;;;3.50;1.33;;;;;;;24.61;24.21;102044.97;4960036;28;20045;-71
2023/06/14 09:55:58;;;;;;;2.95;0.95;;;;;;;24.80;23.88;102038.13;4963219;28;20033;-72
2023/06/14 09:58:26;;;;;;;3.72;1.23;;;;;;;24.81;24.05;102039.81;4962580;28;20099;-71
2023/06/14 10:00:54;;;;;;;4.18;1.55;;;;;;;24.22;24.41;102033.00;4961526;28;20053;-72
2023/06/14 10:03:25;;;;;;;4.15;1.40;;;;;;;24.05;26.10;102034.34;4961890;28;20273;-72
2023/06/14 10:05:51;;;;;;;6.57;1.17;;;;;;;24.13;26.14;102039.94;4960669;28;20049;-71
2023/06/14 10:08:19;;;;;;;5.90;1.42;;;;;;;24.52;26.31;102032.34;4963229;28;20651;-72
2023/06/14 10:10:46;;;;;;;2.53;1.50;;;;;;;24.68;25.64;102037.28;4962198;28;20228;-72
2023/06/14 10:13:12;;;;;;;3.85;1.02;;;;;;;24.79;25.40;102033.72;4962710;28;20062;-72
2023/06/14 10:15:59;;;;;;;9.88;0.80;;;;;;;24.65;24.76;102038.41;4958673;28;20046;-74
2023/06/14 10:18:52;;;;;;;4.30;1.10;;;;;;;24.79;25.58;102036.41;4961968;28;20026;-71
2023/06/14 10:21:46;;;;;;;2.60;1.10;;;;;;;25.23;24.85;102029.19;4970975;28;20050;-71
2023/06/14 10:24:15;;;;;;;3.65;1.05;;;;;;;25.48;24.21;102038.63;4961356;28;20058;-72
2023/06/14 10:26:51;;;;;;;6.68;1.13;;;;;;;25.57;24.40;102042.38;4974608;28;20057;-72
2023/06/14 10:29:17;;;;;;;2.75;1.23;;;;;;;25.51;24.36;102037.53;4962997;28;20034;-72
2023/06/14 10:31:50;;;;;;;3.65;1.42;;;;;;;25.79;23.56;102031.50;4958803;28;20049;-72
2023/06/14 10:34:29;;;;;;;2.78;1.05;;;;;;;25.52;24.90;102039.25;4962701;28;20494;-72
2023/06/14 10:37:11;;;;;;;5.78;1.17;;;;;;;25.74;24.11;102035.56;4960433;28;20034;-72
2023/06/14 10:39:40;;;;;;;6.55;1.60;;;;;;;25.66;24.05;102036.22;4959445;28;20030;-72
2023/06/14 10:42:06;;;;;;;4.30;1.63;;;;;;;24.82;24.51;102041.53;4964132;28;20034;-72
2023/06/14 10:44:55;;;;;;;8.18;1.40;;;;;;;25.18;24.55;102037.59;4959910;28;20537;-72
2023/06/14 10:47:32;;;;;;;3.25;1.02;;;;;;;24.90;23.42;102033.69;4960790;28;20103;-72
2023/06/14 10:50:03;;;;;;;3.20;1.25;;;;;;;25.48;24.16;102038.63;4962942;28;20107;-72
2023/06/14 10:52:29;;;;;;;;;;;;;;;26.19;24.06;102028.00;4960155;28;20203;-71
2023/06/14 10:55:14;;;;;;;2.60;0.90;;;;;;;26.17;23.44;102029.13;4975301;28;20003;-71
2023/06/14 10:57:45;;;;;;;6.60;1.23;;;;;;;25.51;23.47;102032.16;4959857;28;20511;-71
2023/06/14 11:00:15;;;;;;;2.58;1.48;;;;;;;25.40;24.11;102033.13;4965364;28;20046;-72
2023/06/14 11:03:09;;;;;;;1.60;0.90;;;;;;;25.27;24.47;102019.94;4962298;28;20109;-72
2023/06/14 11:05:47;;;;;;;4.82;1.00;;;;;;;25.19;24.33;102023.25;4963468;28;20073;-72
2023/06/14 11:08:12;;;;;;;3.92;1.48;;;;;;;24.85;24.19;102025.22;4968645;28;20510;-73
2023/06/14 11:10:41;;;;;;;1.65;1.00;;;;;;;25.57;24.40;102010.25;4963293;28;20136;-72
2023/06/14 11:13:08;;;;;;;2.25;1.23;;;;;;;25.19;24.45;102012.53;4965554;28;20853;-72
2023/06/14 11:15:35;;;;;;;7.20;0.90;;;;;;;24.98;25.21;102012.53;4961482;28;20128;-72
2023/06/14 11:18:03;;;;;;;3.30;1.33;;;;;;;25.28;23.75;102010.91;4965481;28;20554;-72
2023/06/14 11:20:31;;;;;;;4.72;0.98;;;;;;;25.80;22.70;102006.44;4964322;28;20057;-72
2023/06/14 11:22:57;;;;;;;3.35;0.75;;;;;;;26.07;21.85;102007.69;4963355;28;20030;-72
2023/06/14 11:25:23;;;;;;;5.20;1.10;;;;;;;25.20;24.05;101992.00;4965361;28;20045;-71
2023/06/14 11:27:50;;;;;;;3.70;1.00;;;;;;;25.66;23.28;101998.75;4966604;28;20034;-72